createdAt,value
2018-02-24T00:00:07.142Z,21.50
2018-02-24T00:00:55.919Z,21.12
2018-02-24T00:01:45.016Z,21.33
2018-02-24T00:02:34.065Z,21.02
2018-02-24T00:03:23.102Z,21.92
2018-02-24T00:04:12.152Z,20.52
2018-02-24T00:05:01.268Z,19.65
2018-02-24T00:05:50.337Z,23.52
2018-02-24T00:06:39.372Z,22.67
2018-02-24T00:07:28.418Z,22.83
2018-02-24T00:08:17.476Z,23.50
2018-02-24T00:09:06.518Z,23.35
2018-02-24T00:09:55.651Z,22.55
2018-02-24T00:10:44.697Z,21.67
2018-02-24T00:11:33.760Z,21.50
2018-02-24T00:12:22.810Z,19.75
2018-02-24T00:13:11.852Z,19.95
2018-02-24T00:14:00.926Z,17.73
2018-02-24T00:14:49.979Z,18.65
2018-02-24T00:15:39.076Z,19.02
2018-02-24T00:16:28.127Z,18.62
2018-02-24T00:17:17.209Z,20.73
2018-02-24T00:18:06.243Z,18.80
2018-02-24T00:18:55.292Z,20.35
2018-02-24T00:19:44.354Z,19.00
2018-02-24T00:20:33.405Z,21.52
2018-02-24T00:21:22.480Z,19.65
2018-02-24T00:22:11.532Z,20.80
2018-02-24T00:23:00.584Z,18.20
2018-02-24T00:23:49.645Z,18.15
2018-02-24T00:24:38.717Z,16.55
2018-02-24T00:25:27.773Z,15.55
2018-02-24T00:26:16.807Z,19.27
2018-02-24T00:27:06.073Z,17.80
2018-02-24T00:27:55.130Z,16.27
2018-02-24T00:28:44.297Z,16.75
2018-02-24T00:29:33.354Z,16.85
2018-02-24T00:30:22.398Z,16.35
2018-02-24T00:31:13.881Z,16.87
2018-02-24T00:32:03.043Z,15.48
2018-02-24T00:32:52.080Z,16.40
2018-02-24T00:33:41.149Z,16.30
2018-02-24T00:34:30.195Z,19.83
2018-02-24T00:35:19.281Z,20.20
2018-02-24T00:36:08.336Z,17.15
2018-02-24T00:36:57.398Z,17.87
2018-02-24T00:37:46.493Z,17.37
2018-02-24T00:38:35.549Z,25.85
2018-02-24T00:39:24.617Z,29.52
2018-02-24T00:40:13.664Z,36.28
2018-02-24T00:41:02.727Z,35.67
2018-02-24T00:41:51.780Z,28.98
2018-02-24T00:42:40.848Z,28.42
2018-02-24T00:43:30.373Z,28.12
2018-02-24T00:44:19.427Z,23.52
2018-02-24T00:45:08.463Z,23.08
2018-02-24T00:45:57.565Z,21.00
2018-02-24T00:46:46.636Z,19.80
2018-02-24T00:47:35.683Z,20.77
2018-02-24T00:48:24.772Z,21.80
2018-02-24T00:49:13.838Z,19.27
2018-02-24T00:50:02.918Z,24.48
2018-02-24T00:50:51.968Z,20.62
2018-02-24T00:51:41.094Z,21.92
2018-02-24T00:52:30.153Z,25.08
2018-02-24T00:53:19.228Z,21.58
2018-02-24T00:54:08.305Z,25.92
2018-02-24T00:54:57.352Z,21.33
2018-02-24T00:55:46.579Z,22.52
2018-02-24T00:56:35.619Z,19.90
2018-02-24T00:57:24.733Z,16.48
2018-02-24T00:58:13.804Z,15.00
2018-02-24T00:59:02.864Z,18.83
2018-02-24T00:59:51.901Z,17.23
2018-02-24T01:00:40.947Z,19.23
2018-02-24T01:01:30.021Z,19.05
2018-02-24T01:02:19.076Z,18.45
2018-02-24T01:03:08.224Z,16.75
2018-02-24T01:03:57.274Z,17.10
2018-02-24T01:04:46.354Z,18.12
2018-02-24T01:05:35.432Z,17.37
2018-02-24T01:06:24.692Z,16.50
2018-02-24T01:07:13.742Z,18.58
2018-02-24T01:08:02.814Z,16.50
2018-02-24T01:08:52.083Z,16.23
2018-02-24T01:09:41.128Z,16.95
2018-02-24T01:10:30.185Z,16.77
2018-02-24T01:11:19.251Z,20.85
2018-02-24T01:12:08.305Z,19.73
2018-02-24T01:12:57.414Z,16.67
2018-02-24T01:13:46.528Z,18.52
2018-02-24T01:14:35.617Z,17.15
2018-02-24T01:15:24.659Z,18.35
2018-02-24T01:16:13.698Z,20.35
2018-02-24T01:17:02.799Z,18.00
2018-02-24T01:17:51.856Z,18.85
2018-02-24T01:18:40.923Z,16.52
2018-02-24T01:19:30.115Z,16.87
2018-02-24T01:20:19.180Z,18.10
2018-02-24T01:21:08.238Z,15.55
2018-02-24T01:21:57.274Z,18.50
2018-02-24T01:22:46.324Z,18.52
2018-02-24T01:23:35.446Z,17.50
2018-02-24T01:24:24.495Z,16.33
2018-02-24T01:25:14.583Z,16.40
2018-02-24T01:26:03.640Z,18.48
2018-02-24T01:26:52.680Z,17.73
2018-02-24T01:27:41.750Z,16.42
2018-02-24T01:28:30.795Z,17.87
2018-02-24T01:29:19.846Z,18.08
2018-02-24T01:30:08.882Z,17.45
2018-02-24T01:30:57.964Z,18.00
2018-02-24T01:31:47.010Z,18.75
2018-02-24T01:32:36.100Z,20.20
2018-02-24T01:33:25.156Z,18.00
2018-02-24T01:34:14.216Z,20.58
2018-02-24T01:35:03.298Z,20.25
2018-02-24T01:35:52.353Z,20.60
2018-02-24T01:36:41.498Z,19.77
2018-02-24T01:37:30.533Z,21.80
2018-02-24T01:38:19.575Z,20.02
2018-02-24T01:39:08.617Z,22.25
2018-02-24T01:39:57.669Z,21.60
2018-02-24T01:40:46.723Z,21.55
2018-02-24T01:41:35.772Z,22.08
2018-02-24T01:42:25.067Z,20.55
2018-02-24T01:43:14.123Z,20.92
2018-02-24T01:44:03.175Z,23.17
2018-02-24T01:44:52.241Z,20.60
2018-02-24T01:45:41.283Z,17.83
2018-02-24T01:46:30.327Z,21.75
2018-02-24T01:47:19.379Z,22.77
2018-02-24T01:48:08.456Z,20.45
2018-02-24T01:48:57.501Z,19.20
2018-02-24T01:49:46.558Z,20.37
2018-02-24T01:50:41.549Z,21.92
2018-02-24T01:51:30.595Z,20.42
2018-02-24T01:52:19.650Z,21.30
2018-02-24T01:53:11.493Z,24.20
2018-02-24T01:54:00.545Z,23.52
2018-02-24T01:54:49.584Z,23.80
2018-02-24T01:55:38.643Z,21.58
2018-02-24T01:56:27.879Z,24.05
2018-02-24T01:57:16.924Z,26.37
2018-02-24T01:58:05.963Z,20.98
2018-02-24T01:58:54.998Z,24.85
2018-02-24T01:59:44.075Z,26.90
2018-02-24T02:00:33.134Z,24.37
2018-02-24T02:01:22.178Z,26.70
2018-02-24T02:02:11.459Z,24.40
2018-02-24T02:03:00.504Z,27.52
2018-02-24T02:03:49.565Z,24.35
2018-02-24T02:04:38.619Z,23.95
2018-02-24T02:05:27.659Z,27.25
2018-02-24T02:06:16.763Z,33.10
2018-02-24T02:07:05.825Z,26.17
2018-02-24T02:07:54.890Z,23.62
2018-02-24T02:08:43.961Z,28.20
2018-02-24T02:09:33.003Z,25.08
2018-02-24T02:10:22.091Z,24.90
2018-02-24T02:11:11.178Z,24.27
2018-02-24T02:12:00.243Z,24.27
2018-02-24T02:12:49.302Z,23.48
2018-02-24T02:13:38.339Z,20.62
2018-02-24T02:14:27.381Z,21.37
2018-02-24T02:15:16.427Z,22.90
2018-02-24T02:16:05.490Z,23.17
2018-02-24T02:16:54.603Z,20.83
2018-02-24T02:17:44.690Z,22.58
2018-02-24T02:18:33.782Z,26.65
2018-02-24T02:19:22.962Z,22.85
2018-02-24T02:20:12.027Z,23.55
2018-02-24T02:21:01.090Z,23.20
2018-02-24T02:21:50.152Z,22.45
2018-02-24T02:22:39.208Z,23.23
2018-02-24T02:23:28.250Z,26.12
2018-02-24T02:24:17.322Z,20.50
2018-02-24T02:25:06.478Z,22.92
2018-02-24T02:25:55.511Z,20.33
2018-02-24T02:26:44.623Z,22.15
2018-02-24T02:27:33.686Z,22.10
2018-02-24T02:28:22.734Z,22.25
2018-02-24T02:29:11.772Z,22.83
2018-02-24T02:30:00.814Z,21.95
2018-02-24T02:30:49.900Z,19.45
2018-02-24T02:31:38.954Z,21.30
2018-02-24T02:32:29.070Z,20.83
2018-02-24T02:33:18.117Z,21.52
2018-02-24T02:34:07.157Z,24.50
2018-02-24T02:34:56.232Z,24.37
2018-02-24T02:35:45.296Z,22.15
2018-02-24T02:36:34.343Z,25.10
2018-02-24T02:37:23.392Z,23.75
2018-02-24T02:38:12.626Z,22.98
2018-02-24T02:39:01.679Z,26.95
2018-02-24T02:39:50.741Z,25.37
2018-02-24T02:40:39.771Z,31.15
2018-02-24T02:41:28.828Z,26.20
2018-02-24T02:42:17.889Z,29.10
2018-02-24T02:43:06.930Z,31.90
2018-02-24T02:43:56.003Z,26.60
2018-02-24T02:44:45.113Z,22.17
2018-02-24T02:45:34.195Z,27.77
2018-02-24T02:46:23.284Z,27.50
2018-02-24T02:47:12.333Z,23.55
2018-02-24T02:48:01.388Z,24.60
2018-02-24T02:48:50.432Z,22.42
2018-02-24T02:49:39.522Z,25.33
2018-02-24T02:50:28.560Z,24.45
2018-02-24T02:51:17.621Z,24.00
2018-02-24T02:52:06.662Z,25.17
2018-02-24T02:52:55.695Z,24.87
2018-02-24T02:53:44.758Z,28.73
2018-02-24T02:54:33.816Z,23.62
2018-02-24T02:55:22.998Z,22.87
2018-02-24T02:56:12.056Z,21.55
2018-02-24T02:57:01.111Z,22.25
2018-02-24T02:57:50.161Z,23.65
2018-02-24T02:58:39.219Z,25.48
2018-02-24T02:59:28.290Z,45.53
2018-02-24T03:00:17.345Z,37.40
2018-02-24T03:01:07.667Z,43.85
2018-02-24T03:01:56.709Z,44.08
2018-02-24T03:02:45.777Z,45.90
2018-02-24T03:03:34.835Z,50.75
2018-02-24T03:04:23.920Z,40.67
2018-02-24T03:05:13.033Z,36.80
2018-02-24T03:06:02.084Z,33.58
2018-02-24T03:06:51.161Z,33.55
2018-02-24T03:07:40.228Z,27.75
2018-02-24T03:08:29.279Z,21.60
2018-02-24T03:09:18.342Z,19.17
2018-02-24T03:10:07.401Z,27.58
2018-02-24T03:10:56.443Z,27.15
2018-02-24T03:11:45.492Z,25.73
2018-02-24T03:12:34.588Z,25.58
2018-02-24T03:13:23.639Z,24.45
2018-02-24T03:14:12.722Z,25.55
2018-02-24T03:15:01.773Z,25.02
2018-02-24T03:15:50.821Z,25.90
2018-02-24T03:16:40.145Z,27.20
2018-02-24T03:17:29.183Z,21.92
2018-02-24T03:18:18.248Z,18.98
2018-02-24T03:19:07.276Z,18.40
2018-02-24T03:19:56.330Z,16.10
2018-02-24T03:20:45.367Z,18.73
2018-02-24T03:21:34.417Z,15.38
2018-02-24T03:22:23.571Z,15.55
2018-02-24T03:23:12.624Z,18.62
2018-02-24T03:24:01.672Z,15.38
2018-02-24T03:24:50.732Z,16.95
2018-02-24T03:25:39.784Z,21.80
2018-02-24T03:26:28.836Z,19.55
2018-02-24T03:27:17.891Z,18.55
2018-02-24T03:28:07.049Z,23.08
2018-02-24T03:28:56.114Z,21.77
2018-02-24T03:29:45.179Z,23.52
2018-02-24T03:30:34.238Z,23.38
2018-02-24T03:31:23.294Z,21.98
2018-02-24T03:32:12.351Z,23.33
2018-02-24T03:33:01.430Z,21.75
2018-02-24T03:33:50.506Z,20.92
2018-02-24T03:34:39.538Z,23.25
2018-02-24T03:35:28.602Z,22.45
2018-02-24T03:36:17.659Z,23.85
2018-02-24T03:37:06.705Z,22.23
2018-02-24T03:37:55.757Z,23.15
2018-02-24T03:38:44.794Z,22.17
2018-02-24T03:39:34.080Z,27.52
2018-02-24T03:40:23.149Z,26.35
2018-02-24T03:41:13.141Z,27.15
2018-02-24T03:42:02.226Z,22.00
2018-02-24T03:42:51.283Z,23.12
2018-02-24T03:43:40.346Z,24.20
2018-02-24T03:44:29.404Z,20.95
2018-02-24T03:45:18.501Z,23.95
2018-02-24T03:46:09.496Z,21.77
2018-02-24T03:46:58.528Z,21.10
2018-02-24T03:47:47.595Z,24.17
2018-02-24T03:48:36.646Z,25.42
2018-02-24T03:49:25.728Z,27.92
2018-02-24T03:50:14.785Z,29.27
2018-02-24T03:51:04.066Z,31.60
2018-02-24T03:51:53.179Z,39.17
2018-02-24T03:52:42.242Z,46.92
2018-02-24T03:53:31.307Z,58.78
2018-02-24T03:54:20.376Z,58.30
2018-02-24T03:55:09.429Z,139.62
2018-02-24T03:55:58.503Z,256.90
2018-02-24T03:56:47.572Z,289.50
2018-02-24T03:57:36.914Z,163.10
2018-02-24T03:58:25.986Z,190.25
2018-02-24T03:59:15.155Z,221.57
2018-02-24T04:00:04.237Z,150.60
2018-02-24T04:00:53.292Z,107.95
2018-02-24T04:01:42.359Z,88.25
2018-02-24T04:02:31.411Z,65.50
2018-02-24T04:03:20.450Z,82.18
2018-02-24T04:04:09.491Z,51.72
2018-02-24T04:04:58.603Z,34.00
2018-02-24T04:05:47.674Z,29.55
2018-02-24T04:06:36.706Z,20.45
2018-02-24T04:07:25.817Z,28.38
2018-02-24T04:08:14.938Z,34.75
2018-02-24T04:09:04.035Z,36.20
2018-02-24T04:09:53.114Z,49.88
2018-02-24T04:10:42.150Z,43.65
2018-02-24T04:11:31.225Z,58.42
2018-02-24T04:12:20.285Z,35.95
2018-02-24T04:13:09.571Z,31.98
2018-02-24T04:13:58.632Z,40.80
2018-02-24T04:14:47.679Z,41.03
2018-02-24T04:15:36.851Z,47.17
2018-02-24T04:16:26.003Z,55.97
2018-02-24T04:17:15.009Z,51.08
2018-02-24T04:18:04.061Z,82.12
2018-02-24T04:18:56.274Z,49.67
2018-02-24T04:19:45.339Z,42.33
2018-02-24T04:20:34.397Z,41.30
2018-02-24T04:21:23.484Z,42.33
2018-02-24T04:22:12.599Z,31.48
2018-02-24T04:23:01.665Z,36.78
2018-02-24T04:23:50.716Z,34.20
2018-02-24T04:24:39.750Z,33.80
2018-02-24T04:25:28.782Z,32.63
2018-02-24T04:26:17.824Z,34.72
2018-02-24T04:27:06.876Z,38.88
2018-02-24T04:27:55.976Z,37.17
2018-02-24T04:28:45.028Z,36.53
2018-02-24T04:29:34.076Z,38.42
2018-02-24T04:30:23.174Z,35.70
2018-02-24T04:31:12.470Z,39.55
2018-02-24T04:32:01.513Z,32.60
2018-02-24T04:32:50.554Z,26.83
2018-02-24T04:33:39.613Z,28.10
2018-02-24T04:34:28.660Z,25.15
2018-02-24T04:35:17.707Z,23.80
2018-02-24T04:36:06.846Z,22.55
2018-02-24T04:36:55.883Z,27.35
2018-02-24T04:37:44.942Z,24.58
2018-02-24T04:38:34.018Z,70.22
2018-02-24T04:39:23.060Z,74.87
2018-02-24T04:40:12.105Z,62.03
2018-02-24T04:41:01.158Z,58.33
2018-02-24T04:41:50.269Z,54.80
2018-02-24T04:42:39.330Z,49.08
2018-02-24T04:43:28.386Z,55.17
2018-02-24T04:44:17.677Z,46.00
2018-02-24T04:52:03.120Z,35.80
2018-02-24T04:52:52.167Z,35.95
2018-02-24T04:53:41.210Z,35.83
2018-02-24T04:54:30.253Z,33.33
2018-02-24T04:55:19.308Z,36.50
2018-02-24T04:56:08.353Z,28.60
2018-02-24T04:56:57.394Z,29.23
2018-02-24T04:57:46.491Z,27.27
2018-02-24T04:58:35.539Z,30.75
2018-02-24T04:59:24.585Z,27.30
2018-02-24T05:00:13.623Z,33.28
2018-02-24T05:01:02.673Z,34.50
2018-02-24T05:01:51.719Z,47.28
2018-02-24T05:02:40.771Z,50.00
2018-02-24T05:03:29.838Z,57.08
2018-02-24T05:04:18.872Z,86.07
2018-02-24T05:05:07.921Z,67.65
2018-02-24T05:05:56.968Z,75.28
2018-02-24T05:06:46.033Z,83.55
2018-02-24T05:07:35.083Z,95.95
2018-02-24T05:08:24.122Z,81.82
2018-02-24T05:09:13.516Z,83.70
2018-02-24T05:10:02.605Z,198.82
2018-02-24T05:10:51.778Z,117.50
2018-02-24T05:11:40.833Z,148.80
2018-02-24T05:12:29.897Z,113.15
2018-02-24T05:13:18.943Z,116.75
2018-02-24T05:14:08.007Z,112.50
2018-02-24T05:14:57.075Z,107.90
2018-02-24T05:15:46.127Z,100.93
2018-02-24T05:16:35.230Z,97.37
2018-02-24T05:17:24.309Z,142.07
2018-02-24T05:18:13.358Z,912.63
2018-02-24T05:19:02.568Z,683.22
2018-02-24T05:19:51.636Z,603.35
2018-02-24T05:20:40.728Z,486.27
2018-02-24T05:21:29.779Z,593.40
2018-02-24T05:22:18.915Z,890.03
2018-02-24T05:23:07.979Z,522.87
2018-02-24T05:23:57.050Z,265.58
2018-02-24T05:24:46.126Z,189.30
2018-02-24T05:25:35.169Z,144.62
2018-02-24T05:26:24.230Z,193.48
2018-02-24T05:27:13.307Z,158.07
2018-02-24T05:28:02.479Z,401.80
2018-02-24T05:28:51.542Z,265.58
2018-02-24T05:29:40.623Z,249.10
2018-02-24T05:30:29.679Z,272.33
2018-02-24T05:31:18.757Z,208.63
2018-02-24T05:32:07.815Z,335.88
2018-02-24T05:32:56.868Z,350.92
2018-02-24T05:33:46.170Z,344.92
2018-02-24T05:34:35.239Z,208.85
2018-02-24T05:35:24.305Z,132.45
2018-02-24T05:36:13.355Z,113.70
2018-02-24T05:37:02.433Z,146.75
2018-02-24T05:37:51.489Z,144.27
2018-02-24T05:38:40.527Z,133.93
2018-02-24T05:39:29.647Z,146.02
2018-02-24T05:40:18.701Z,266.30
2018-02-24T05:41:07.754Z,203.05
2018-02-24T05:41:56.853Z,379.38
2018-02-24T05:42:45.910Z,172.07
2018-02-24T05:43:34.953Z,115.82
2018-02-24T05:44:24.020Z,168.98
2018-02-24T05:45:13.097Z,211.43
2018-02-24T05:46:02.170Z,201.55
2018-02-24T05:46:51.228Z,102.78
2018-02-24T05:47:40.373Z,104.12
2018-02-24T05:48:29.648Z,107.55
2018-02-24T05:49:18.698Z,100.28
2018-02-24T05:50:07.748Z,99.97
2018-02-24T05:50:56.796Z,94.53
2018-02-24T05:51:46.520Z,101.97
2018-02-24T05:52:35.581Z,100.93
2018-02-24T05:53:24.675Z,107.63
2018-02-24T05:54:13.726Z,116.40
2018-02-24T05:55:02.772Z,116.85
2018-02-24T05:55:51.814Z,119.10
2018-02-24T05:56:40.864Z,120.95
2018-02-24T05:57:29.921Z,122.75
2018-02-24T05:58:18.976Z,138.90
2018-02-24T05:59:08.240Z,153.18
2018-02-24T05:59:57.291Z,137.80
2018-02-24T06:00:46.526Z,181.85
2018-02-24T06:01:36.190Z,182.30
2018-02-24T06:02:26.064Z,177.20
2018-02-24T06:03:15.172Z,187.27
2018-02-24T06:04:04.566Z,188.15
2018-02-24T06:04:53.684Z,207.02
2018-02-24T06:05:42.769Z,164.65
2018-02-24T06:06:32.005Z,167.05
2018-02-24T06:07:21.101Z,162.55
2018-02-24T06:08:10.475Z,163.02
2018-02-24T06:08:59.535Z,158.00
2018-02-24T06:09:48.582Z,162.05
2018-02-24T06:10:37.664Z,146.43
2018-02-24T06:11:26.754Z,146.18
2018-02-24T06:12:15.831Z,163.68
2018-02-24T06:13:04.920Z,149.05
2018-02-24T06:13:54.279Z,147.60
2018-02-24T06:14:43.362Z,141.02
2018-02-24T06:15:32.414Z,166.25
2018-02-24T06:16:21.468Z,103.25
2018-02-24T06:17:10.528Z,134.02
2018-02-24T06:17:59.580Z,135.88
2018-02-24T06:18:48.621Z,82.32
2018-02-24T06:19:37.663Z,106.50
2018-02-24T06:20:26.931Z,103.03
2018-02-24T06:21:16.000Z,102.38
2018-02-24T06:22:05.093Z,97.85
2018-02-24T06:22:54.144Z,95.38
2018-02-24T06:23:43.182Z,98.18
2018-02-24T06:24:32.222Z,115.53
2018-02-24T06:25:21.363Z,116.82
2018-02-24T06:26:11.173Z,121.62
2018-02-24T06:27:00.416Z,131.73
2018-02-24T06:27:49.637Z,123.15
2018-02-24T06:28:38.706Z,146.35
2018-02-24T06:29:27.769Z,140.77
2018-02-24T06:30:16.836Z,141.88
2018-02-24T06:31:05.908Z,144.45
2018-02-24T06:31:54.980Z,148.57
2018-02-24T06:32:44.031Z,153.40
2018-02-24T06:33:33.134Z,145.20
2018-02-24T06:34:22.195Z,152.23
2018-02-24T06:35:11.262Z,154.73
2018-02-24T06:36:00.338Z,230.20
2018-02-24T06:36:49.499Z,191.18
2018-02-24T06:37:39.478Z,222.23
2018-02-24T06:38:28.556Z,218.77
2018-02-24T06:39:17.635Z,201.93
2018-02-24T06:40:06.712Z,203.75
2018-02-24T06:40:55.786Z,195.85
2018-02-24T06:41:44.848Z,190.77
2018-02-24T06:42:33.910Z,187.85
2018-02-24T06:43:23.061Z,277.38
2018-02-24T06:44:12.120Z,179.35
2018-02-24T06:45:01.208Z,183.45
2018-02-24T06:45:50.270Z,176.87
2018-02-24T06:46:39.538Z,203.65
2018-02-24T06:47:30.993Z,165.23
2018-02-24T06:48:20.090Z,338.52
2018-02-24T06:49:09.404Z,188.48
2018-02-24T06:49:58.515Z,194.57
2018-02-24T06:50:47.661Z,199.45
2018-02-24T06:51:36.761Z,187.77
2018-02-24T06:52:25.835Z,176.02
2018-02-24T06:53:14.921Z,176.57
2018-02-24T06:54:04.214Z,192.18
2018-02-24T06:54:53.295Z,175.38
2018-02-24T06:55:42.385Z,161.48
2018-02-24T06:56:31.469Z,147.93
2018-02-24T06:57:20.553Z,143.00
2018-02-24T06:58:09.612Z,152.10
2018-02-24T06:58:58.663Z,149.43
2018-02-24T06:59:47.725Z,159.37
2018-02-24T07:00:36.801Z,142.80
2018-02-24T07:01:25.946Z,143.00
2018-02-24T07:02:15.014Z,156.00
2018-02-24T07:03:04.080Z,129.52
2018-02-24T07:03:53.163Z,121.97
2018-02-24T07:04:42.537Z,130.82
2018-02-24T07:05:31.695Z,112.30
2018-02-24T07:06:20.797Z,91.53
2018-02-24T07:07:09.890Z,101.35
2018-02-24T07:07:58.950Z,88.85
2018-02-24T07:08:48.005Z,101.65
2018-02-24T07:09:37.057Z,95.05
2018-02-24T07:10:26.100Z,79.07
2018-02-24T07:11:15.222Z,86.95
2018-02-24T07:12:04.382Z,91.53
2018-02-24T07:15:42.020Z,39.00
2018-02-24T07:16:31.075Z,39.33
2018-02-24T07:17:20.198Z,34.42
2018-02-24T07:18:09.585Z,38.70
2018-02-24T07:18:58.654Z,39.83
2018-02-24T07:19:47.694Z,43.63
2018-02-24T07:20:36.757Z,55.22
2018-02-24T07:21:25.789Z,49.45
2018-02-24T07:22:14.830Z,34.40
2018-02-24T07:23:04.103Z,29.60
2018-02-24T07:23:53.167Z,27.92
2018-02-24T07:24:42.230Z,31.12
2018-02-24T07:25:31.297Z,33.75
2018-02-24T07:26:20.363Z,36.25
2018-02-24T07:27:09.402Z,41.08
2018-02-24T07:27:58.479Z,33.17
2018-02-24T07:28:47.635Z,35.28
2018-02-24T07:29:36.706Z,38.80
2018-02-24T07:30:25.756Z,44.88
2018-02-24T07:31:14.822Z,33.97
2018-02-24T07:32:06.843Z,31.17
2018-02-24T07:32:56.424Z,32.38
2018-02-24T07:33:48.815Z,32.72
2018-02-24T07:34:39.987Z,32.58
2018-02-24T07:35:29.463Z,59.60
2018-02-24T07:36:18.524Z,35.10
2018-02-24T07:37:07.571Z,31.20
2018-02-24T07:37:56.648Z,31.62
2018-02-24T07:38:45.751Z,32.40
2018-02-24T07:39:35.887Z,25.52
2018-02-24T07:40:26.425Z,29.50
2018-02-24T07:41:19.290Z,25.40
2018-02-24T07:42:12.824Z,34.78
2018-02-24T07:43:05.155Z,34.72
2018-02-24T07:43:57.657Z,32.83
2018-02-24T07:44:51.024Z,41.72
2018-02-24T07:45:40.311Z,51.80
2018-02-24T07:46:29.475Z,46.50
2018-02-24T07:47:18.620Z,38.08
2018-02-24T07:48:07.711Z,37.47
2018-02-24T07:48:57.060Z,41.10
2018-02-24T07:49:46.154Z,42.88
2018-02-24T07:50:35.292Z,34.78
2018-02-24T07:51:24.424Z,35.08
2018-02-24T07:52:13.574Z,24.77
2018-02-24T07:53:02.652Z,24.85
2018-02-24T07:53:51.724Z,16.50
2018-02-24T07:54:40.804Z,17.20
2018-02-24T07:55:29.905Z,22.90
2018-02-24T07:56:19.129Z,14.07
2018-02-24T07:57:08.238Z,17.48
2018-02-24T07:57:57.363Z,27.10
2018-02-24T07:58:46.461Z,19.08
2018-02-24T07:59:35.570Z,32.80
2018-02-24T08:00:24.685Z,36.65
2018-02-24T08:01:13.765Z,43.65
2018-02-24T08:02:03.262Z,36.08
2018-02-24T08:02:52.409Z,35.88
2018-02-24T08:03:41.542Z,34.13
2018-02-24T08:04:30.661Z,30.42
2018-02-24T08:05:19.782Z,26.35
2018-02-24T08:06:08.864Z,26.85
2018-02-24T08:06:57.987Z,36.20
2018-02-24T08:07:47.261Z,28.70
2018-02-24T08:08:36.388Z,39.70
2018-02-24T08:09:25.490Z,43.03
2018-02-24T08:10:14.569Z,32.75
2018-02-24T08:11:03.683Z,28.00
2018-02-24T08:11:52.745Z,32.53
2018-02-24T08:12:41.849Z,30.48
2018-02-24T08:13:30.987Z,26.50
2018-02-24T08:14:20.106Z,27.92
2018-02-24T08:15:09.201Z,21.02
2018-02-24T08:15:58.351Z,23.12
2018-02-24T08:16:47.489Z,24.23
2018-02-24T08:17:36.592Z,21.77
2018-02-24T08:18:25.770Z,26.70
2018-02-24T08:19:14.859Z,24.55
2018-02-24T08:20:03.942Z,24.77
2018-02-24T08:20:53.035Z,15.13
2018-02-24T08:21:42.144Z,13.20
2018-02-24T08:22:31.238Z,14.00
2018-02-24T08:23:20.340Z,13.00
2018-02-24T08:24:09.805Z,13.57
2018-02-24T08:24:59.076Z,16.33
2018-02-24T08:25:48.364Z,27.35
2018-02-24T08:26:37.575Z,19.95
2018-02-24T08:27:26.690Z,17.83
2018-02-24T08:28:15.820Z,23.38
2018-02-24T08:29:04.902Z,17.50
2018-02-24T08:29:54.040Z,16.55
2018-02-24T08:30:43.124Z,15.05
2018-02-24T08:31:32.225Z,19.48
2018-02-24T08:32:21.357Z,19.27
2018-02-24T08:33:10.433Z,17.58
2018-02-24T08:33:59.578Z,25.88
2018-02-24T08:34:48.672Z,21.83
2018-02-24T08:35:37.763Z,29.52
2018-02-24T08:36:26.870Z,44.55
2018-02-24T08:37:15.932Z,46.88
2018-02-24T08:38:05.050Z,31.35
2018-02-24T08:38:54.165Z,26.98
2018-02-24T08:39:43.263Z,29.95
2018-02-24T08:40:32.351Z,25.20
2018-02-24T08:41:23.266Z,22.37
2018-02-24T08:42:12.441Z,24.20
2018-02-24T08:43:01.541Z,34.58
2018-02-24T08:43:51.554Z,29.33
2018-02-24T08:44:40.684Z,19.98
2018-02-24T08:45:29.784Z,22.75
2018-02-24T08:46:18.882Z,18.77
2018-02-24T08:47:08.085Z,18.58
2018-02-24T08:47:58.898Z,27.27
2018-02-24T08:48:48.009Z,21.05
2018-02-24T08:49:37.084Z,40.00
2018-02-24T08:50:26.150Z,23.65
2018-02-24T08:51:15.265Z,25.08
2018-02-24T08:52:04.328Z,37.28
2018-02-24T08:52:53.471Z,36.45
2018-02-24T08:53:42.575Z,30.05
2018-02-24T08:54:31.657Z,17.33
2018-02-24T08:55:20.778Z,15.35
2018-02-24T08:56:09.853Z,20.37
2018-02-24T08:56:58.999Z,19.52
2018-02-24T08:57:48.133Z,17.75
2018-02-24T08:58:37.272Z,17.25
2018-02-24T08:59:26.501Z,18.48
2018-02-24T09:00:15.484Z,22.02
2018-02-24T09:01:04.554Z,25.58
2018-02-24T09:01:53.681Z,17.35
2018-02-24T09:02:42.757Z,17.00
2018-02-24T09:03:31.992Z,14.25
2018-02-24T09:04:21.402Z,19.23
2018-02-24T09:05:10.552Z,27.95
2018-02-24T09:05:59.647Z,20.27
2018-02-24T09:06:48.716Z,23.05
2018-02-24T09:07:37.829Z,22.08
2018-02-24T09:08:26.989Z,14.75
2018-02-24T09:09:16.044Z,17.15
2018-02-24T09:10:06.159Z,19.83
2018-02-24T09:10:55.328Z,50.00
2018-02-24T09:11:44.512Z,61.08
2018-02-24T09:12:33.568Z,57.83
2018-02-24T09:13:22.666Z,62.13
2018-02-24T09:14:11.734Z,47.22
2018-02-24T09:15:00.888Z,25.73
2018-02-24T09:15:50.199Z,65.18
2018-02-24T09:16:39.254Z,33.45
2018-02-24T09:17:28.379Z,25.50
2018-02-24T09:18:17.464Z,41.78
2018-02-24T09:19:06.685Z,33.38
2018-02-24T09:19:58.886Z,30.58
2018-02-24T09:20:48.030Z,21.58
2018-02-24T09:21:37.122Z,23.73
2018-02-24T09:22:26.204Z,24.87
2018-02-24T09:23:15.534Z,82.62
2018-02-24T09:24:04.893Z,78.78
2018-02-24T09:24:54.057Z,31.37
2018-02-24T09:25:43.214Z,29.08
2018-02-24T09:26:32.395Z,31.17
2018-02-24T09:27:21.863Z,66.70
2018-02-24T09:28:10.960Z,64.93
2018-02-24T09:29:00.061Z,37.53
2018-02-24T09:29:49.125Z,43.75
2018-02-24T09:30:38.190Z,86.37
2018-02-24T09:31:27.278Z,53.15
2018-02-24T09:32:16.503Z,41.53
2018-02-24T09:33:05.701Z,48.95
2018-02-24T09:33:54.850Z,49.90
2018-02-24T09:34:43.962Z,46.90
2018-02-24T09:35:33.054Z,35.70
2018-02-24T09:36:22.120Z,31.37
2018-02-24T09:37:11.225Z,34.85
2018-02-24T09:38:00.335Z,34.70
2018-02-24T09:38:49.570Z,25.98
2018-02-24T09:39:38.656Z,30.77
2018-02-24T09:40:27.760Z,35.20
2018-02-24T09:41:16.896Z,37.60
2018-02-24T09:42:06.029Z,33.10
2018-02-24T09:42:55.110Z,33.22
2018-02-24T09:43:44.190Z,34.08
2018-02-24T09:44:33.502Z,34.20
2018-02-24T09:45:22.625Z,37.63
2018-02-24T09:46:11.718Z,25.85
2018-02-24T09:47:00.867Z,27.92
2018-02-24T09:47:49.949Z,51.60
2018-02-24T09:48:39.034Z,26.58
2018-02-24T09:49:28.122Z,27.67
2018-02-24T09:50:17.225Z,56.80
2018-02-24T09:51:06.402Z,58.17
2018-02-24T09:51:55.492Z,66.93
2018-02-24T09:52:44.790Z,46.90
2018-02-24T09:53:33.943Z,36.58
2018-02-24T09:54:23.079Z,35.67
2018-02-24T09:55:20.251Z,30.15
2018-02-24T09:56:12.806Z,27.02
2018-02-24T09:57:02.089Z,23.25
2018-02-24T09:57:51.141Z,26.42
2018-02-24T09:58:40.257Z,27.70
2018-02-24T09:59:29.353Z,17.83
2018-02-24T10:00:20.956Z,31.17
2018-02-24T10:01:13.924Z,25.40
2018-02-24T10:02:03.315Z,24.80
2018-02-24T10:02:52.365Z,26.85
2018-02-24T10:03:41.503Z,36.15
2018-02-24T10:04:30.610Z,23.55
2018-02-24T10:05:19.718Z,21.60
2018-02-24T10:06:08.791Z,25.77
2018-02-24T10:06:57.903Z,62.90
2018-02-24T10:07:47.029Z,44.20
2018-02-24T10:08:36.252Z,54.22
2018-02-24T10:09:25.325Z,69.15
2018-02-24T10:10:14.441Z,117.13
2018-02-24T10:11:03.598Z,57.22
2018-02-24T10:11:52.687Z,38.13
2018-02-24T10:12:41.878Z,40.78
2018-02-24T10:13:30.963Z,30.05
2018-02-24T10:14:20.407Z,48.97
2018-02-24T10:15:11.272Z,41.90
2018-02-24T10:16:00.354Z,19.87
2018-02-24T10:16:49.452Z,27.58
2018-02-24T10:17:38.524Z,33.20
2018-02-24T10:18:27.973Z,30.40
2018-02-24T10:19:17.325Z,55.30
2018-02-24T10:20:06.420Z,42.28
2018-02-24T10:20:55.610Z,37.67
2018-02-24T10:21:44.710Z,42.28
2018-02-24T10:22:33.864Z,37.08
2018-02-24T10:23:22.963Z,28.77
2018-02-24T10:24:12.023Z,52.60
2018-02-24T10:25:01.230Z,59.42
2018-02-24T10:25:50.262Z,34.53
2018-02-24T10:26:39.362Z,57.03
2018-02-24T10:27:28.524Z,62.28
2018-02-24T10:28:17.811Z,42.67
2018-02-24T10:29:06.963Z,56.40
2018-02-24T10:29:56.105Z,51.42
2018-02-24T10:30:45.199Z,17.73
2018-02-24T10:31:34.284Z,19.67
2018-02-24T10:32:23.408Z,21.65
2018-02-24T10:33:12.489Z,33.00
2018-02-24T10:34:01.632Z,23.98
2018-02-24T10:34:50.909Z,31.25
2018-02-24T10:35:40.088Z,52.10
2018-02-24T10:36:29.178Z,62.13
2018-02-24T10:37:18.258Z,34.42
2018-02-24T10:38:07.329Z,29.00
2018-02-24T10:38:56.384Z,55.88